sensor_id;sensor_type;location;lat;lon;timestamp;pressure;altitude;pressure_sealevel;temperature;humidity
71151;BME280;59071;42.138;24.768;2023-02-02T00:00:53;99735.56;;;5.95;44.14
71151;BME280;59071;42.138;24.768;2023-02-02T00:03:18;99738.34;;;5.94;44.13
71151;BME280;59071;42.138;24.768;2023-02-02T00:05:44;99744.34;;;5.48;45.00
71151;BME280;59071;42.138;24.768;2023-02-02T00:08:10;99753.75;;;5.51;45.20
71151;BME280;59071;42.138;24.768;2023-02-02T00:10:35;99761.81;;;5.49;45.72
71151;BME280;59071;42.138;24.768;2023-02-02T00:13:00;99765.81;;;5.45;45.60
71151;BME280;59071;42.138;24.768;2023-02-02T00:15:26;99768.28;;;5.46;45.42
71151;BME280;59071;42.138;24.768;2023-02-02T00:17:51;99758.16;;;5.58;44.91
71151;BME280;59071;42.138;24.768;2023-02-02T00:20:16;99760.91;;;6.13;43.80
71151;BME280;59071;42.138;24.768;2023-02-02T00:22:41;99761.69;;;6.21;43.46
71151;BME280;59071;42.138;24.768;2023-02-02T00:25:07;99766.13;;;5.98;43.61
71151;BME280;59071;42.138;24.768;2023-02-02T00:27:32;99766.34;;;5.80;44.37
71151;BME280;59071;42.138;24.768;2023-02-02T00:29:58;99766.34;;;6.19;44.21
71151;BME280;59071;42.138;24.768;2023-02-02T00:32:23;99764.16;;;6.23;44.54
71151;BME280;59071;42.138;24.768;2023-02-02T00:34:48;99765.88;;;6.39;43.66
71151;BME280;59071;42.138;24.768;2023-02-02T00:37:13;99771.28;;;6.45;44.07
71151;BME280;59071;42.138;24.768;2023-02-02T00:39:39;99769.22;;;6.33;44.10
71151;BME280;59071;42.138;24.768;2023-02-02T00:42:04;99765.69;;;6.17;44.72
71151;BME280;59071;42.138;24.768;2023-02-02T00:44:29;99766.97;;;6.21;45.05
71151;BME280;59071;42.138;24.768;2023-02-02T00:47:13;99758.09;;;6.14;45.04
71151;BME280;59071;42.138;24.768;2023-02-02T00:49:38;99763.06;;;6.09;45.06
71151;BME280;59071;42.138;24.768;2023-02-02T00:52:03;99759.09;;;6.13;45.22
71151;BME280;59071;42.138;24.768;2023-02-02T00:54:29;99758.63;;;6.10;45.01
71151;BME280;59071;42.138;24.768;2023-02-02T00:56:55;99754.47;;;6.38;44.72
71151;BME280;59071;42.138;24.768;2023-02-02T00:59:20;99749.66;;;6.42;44.78
71151;BME280;59071;42.138;24.768;2023-02-02T01:01:45;99751.28;;;6.20;45.43
71151;BME280;59071;42.138;24.768;2023-02-02T01:04:11;99742.88;;;6.16;45.49
71151;BME280;59071;42.138;24.768;2023-02-02T01:06:36;99762.31;;;6.00;45.35
71151;BME280;59071;42.138;24.768;2023-02-02T01:09:01;99769.69;;;6.05;45.40
71151;BME280;59071;42.138;24.768;2023-02-02T01:11:27;99762.66;;;5.89;45.60
71151;BME280;59071;42.138;24.768;2023-02-02T01:13:52;99769.00;;;5.72;46.65
71151;BME280;59071;42.138;24.768;2023-02-02T01:16:17;99766.28;;;5.88;46.27
71151;BME280;59071;42.138;24.768;2023-02-02T01:18:43;99758.75;;;5.77;46.53
71151;BME280;59071;42.138;24.768;2023-02-02T01:21:09;99764.00;;;5.85;46.40
71151;BME280;59071;42.138;24.768;2023-02-02T01:23:35;99767.94;;;5.89;46.00
71151;BME280;59071;42.138;24.768;2023-02-02T01:26:02;99771.63;;;5.80;46.47
71151;BME280;59071;42.138;24.768;2023-02-02T01:28:28;99779.31;;;5.90;45.66
71151;BME280;59071;42.138;24.768;2023-02-02T01:30:53;99777.91;;;5.71;46.75
71151;BME280;59071;42.138;24.768;2023-02-02T01:33:19;99775.06;;;5.80;46.08
71151;BME280;59071;42.138;24.768;2023-02-02T01:35:48;99772.22;;;5.98;45.74
71151;BME280;59071;42.138;24.768;2023-02-02T01:38:13;99777.69;;;5.88;45.90
71151;BME280;59071;42.138;24.768;2023-02-02T01:41:40;99770.50;;;6.14;45.91
71151;BME280;59071;42.138;24.768;2023-02-02T01:46:06;99774.69;;;6.00;46.14
71151;BME280;59071;42.138;24.768;2023-02-02T01:48:34;99774.66;;;6.08;46.29
71151;BME280;59071;42.138;24.768;2023-02-02T01:51:00;99772.78;;;6.17;46.20
71151;BME280;59071;42.138;24.768;2023-02-02T01:53:27;99759.97;;;6.05;45.93
71151;BME280;59071;42.138;24.768;2023-02-02T01:55:53;99762.78;;;6.04;46.46
71151;BME280;59071;42.138;24.768;2023-02-02T01:58:24;99759.22;;;5.88;45.97
71151;BME280;59071;42.138;24.768;2023-02-02T02:00:50;99757.53;;;5.87;46.31
71151;BME280;59071;42.138;24.768;2023-02-02T02:03:16;99764.72;;;6.10;45.60
71151;BME280;59071;42.138;24.768;2023-02-02T02:06:02;99770.84;;;6.34;45.59
71151;BME280;59071;42.138;24.768;2023-02-02T02:08:30;99767.47;;;6.25;45.27
71151;BME280;59071;42.138;24.768;2023-02-02T02:10:56;99772.00;;;6.08;45.54
71151;BME280;59071;42.138;24.768;2023-02-02T02:13:22;99767.75;;;5.99;45.94
71151;BME280;59071;42.138;24.768;2023-02-02T02:16:51;99766.13;;;5.90;46.53
71151;BME280;59071;42.138;24.768;2023-02-02T02:32:51;99760.66;;;5.91;46.55
71151;BME280;59071;42.138;24.768;2023-02-02T02:35:27;99766.00;;;5.83;46.87
71151;BME280;59071;42.138;24.768;2023-02-02T02:42:53;99765.19;;;5.74;47.54
71151;BME280;59071;42.138;24.768;2023-02-02T02:45:19;99763.41;;;5.66;47.53
71151;BME280;59071;42.138;24.768;2023-02-02T02:47:45;99761.44;;;5.68;47.92
71151;BME280;59071;42.138;24.768;2023-02-02T02:50:12;99761.47;;;5.92;46.91
71151;BME280;59071;42.138;24.768;2023-02-02T02:52:37;99755.50;;;5.66;47.70
71151;BME280;59071;42.138;24.768;2023-02-02T02:55:04;99754.31;;;5.69;47.82
71151;BME280;59071;42.138;24.768;2023-02-02T03:02:47;99741.91;;;5.78;47.13
71151;BME280;59071;42.138;24.768;2023-02-02T03:05:25;99742.09;;;5.76;47.45
71151;BME280;59071;42.138;24.768;2023-02-02T03:10:26;99743.50;;;5.95;47.47
71151;BME280;59071;42.138;24.768;2023-02-02T03:12:53;99746.28;;;6.02;46.67
71151;BME280;59071;42.138;24.768;2023-02-02T03:15:19;99748.88;;;5.71;47.59
71151;BME280;59071;42.138;24.768;2023-02-02T03:17:45;99753.34;;;5.70;47.28
71151;BME280;59071;42.138;24.768;2023-02-02T03:20:11;99749.34;;;5.74;47.05
71151;BME280;59071;42.138;24.768;2023-02-02T03:22:37;99755.38;;;5.91;46.45
71151;BME280;59071;42.138;24.768;2023-02-02T03:25:02;99747.31;;;5.84;46.69
71151;BME280;59071;42.138;24.768;2023-02-02T03:27:27;99746.97;;;5.96;46.74
71151;BME280;59071;42.138;24.768;2023-02-02T03:29:53;99739.38;;;5.93;46.14
71151;BME280;59071;42.138;24.768;2023-02-02T03:32:19;99738.69;;;5.99;46.36
71151;BME280;59071;42.138;24.768;2023-02-02T03:34:44;99734.69;;;6.11;45.83
71151;BME280;59071;42.138;24.768;2023-02-02T03:37:09;99735.59;;;5.87;46.73
71151;BME280;59071;42.138;24.768;2023-02-02T03:39:35;99729.03;;;6.14;46.21
71151;BME280;59071;42.138;24.768;2023-02-02T03:42:00;99733.28;;;6.23;45.77
71151;BME280;59071;42.138;24.768;2023-02-02T03:44:25;99724.13;;;6.34;45.73
71151;BME280;59071;42.138;24.768;2023-02-02T03:46:53;99733.81;;;6.19;46.67
71151;BME280;59071;42.138;24.768;2023-02-02T03:49:19;99738.50;;;6.32;46.24
71151;BME280;59071;42.138;24.768;2023-02-02T03:51:45;99730.28;;;5.95;46.41
71151;BME280;59071;42.138;24.768;2023-02-02T03:54:10;99731.72;;;6.06;46.25
71151;BME280;59071;42.138;24.768;2023-02-02T03:56:35;99734.06;;;6.01;46.60
71151;BME280;59071;42.138;24.768;2023-02-02T03:59:01;99733.75;;;5.96;46.73
71151;BME280;59071;42.138;24.768;2023-02-02T04:01:27;99734.31;;;6.14;46.64
71151;BME280;59071;42.138;24.768;2023-02-02T04:03:53;99730.25;;;6.03;47.07
71151;BME280;59071;42.138;24.768;2023-02-02T04:06:18;99731.59;;;5.99;46.45
71151;BME280;59071;42.138;24.768;2023-02-02T04:08:44;99728.59;;;6.02;46.54
71151;BME280;59071;42.138;24.768;2023-02-02T04:11:10;99727.16;;;6.00;46.69
71151;BME280;59071;42.138;24.768;2023-02-02T04:13:35;99727.69;;;5.87;47.56
71151;BME280;59071;42.138;24.768;2023-02-02T04:16:00;99733.25;;;6.00;46.83
71151;BME280;59071;42.138;24.768;2023-02-02T04:18:26;99733.97;;;6.17;46.92
71151;BME280;59071;42.138;24.768;2023-02-02T04:20:58;99734.06;;;6.01;46.61
71151;BME280;59071;42.138;24.768;2023-02-02T04:23:24;99742.50;;;6.28;46.58
71151;BME280;59071;42.138;24.768;2023-02-02T04:25:49;99737.06;;;5.90;47.65
71151;BME280;59071;42.138;24.768;2023-02-02T04:28:15;99744.81;;;5.91;47.65
71151;BME280;59071;42.138;24.768;2023-02-02T04:30:40;99739.22;;;5.86;47.44
71151;BME280;59071;42.138;24.768;2023-02-02T04:33:05;99743.63;;;5.94;47.40
71151;BME280;59071;42.138;24.768;2023-02-02T04:35:31;99745.63;;;5.92;47.39
71151;BME280;59071;42.138;24.768;2023-02-02T04:37:56;99757.28;;;5.74;47.61
71151;BME280;59071;42.138;24.768;2023-02-02T04:40:21;99749.50;;;5.81;47.91
71151;BME280;59071;42.138;24.768;2023-02-02T04:42:47;99755.03;;;6.02;47.61
71151;BME280;59071;42.138;24.768;2023-02-02T04:45:12;99755.56;;;5.98;47.48
71151;BME280;59071;42.138;24.768;2023-02-02T04:47:37;99766.00;;;5.83;47.35
71151;BME280;59071;42.138;24.768;2023-02-02T04:50:03;99766.75;;;5.60;48.13
71151;BME280;59071;42.138;24.768;2023-02-02T04:52:28;99765.25;;;5.66;48.27
71151;BME280;59071;42.138;24.768;2023-02-02T04:54:53;99763.25;;;5.68;47.57
71151;BME280;59071;42.138;24.768;2023-02-02T04:57:18;99775.66;;;5.59;48.34
71151;BME280;59071;42.138;24.768;2023-02-02T04:59:44;99770.41;;;5.51;47.72
71151;BME280;59071;42.138;24.768;2023-02-02T05:02:09;99774.13;;;5.73;47.39
71151;BME280;59071;42.138;24.768;2023-02-02T05:04:34;99764.66;;;5.87;47.22
71151;BME280;59071;42.138;24.768;2023-02-02T05:07:00;99784.06;;;5.63;47.79
71151;BME280;59071;42.138;24.768;2023-02-02T05:09:25;99778.56;;;5.73;47.40
71151;BME280;59071;42.138;24.768;2023-02-02T05:11:50;99784.25;;;5.53;47.71
71151;BME280;59071;42.138;24.768;2023-02-02T05:14:15;99780.38;;;5.24;48.31
71151;BME280;59071;42.138;24.768;2023-02-02T05:16:42;99781.47;;;5.38;48.41
71151;BME280;59071;42.138;24.768;2023-02-02T05:19:08;99784.91;;;6.03;46.89
71151;BME280;59071;42.138;24.768;2023-02-02T05:21:34;99791.88;;;5.87;46.70
71151;BME280;59071;42.138;24.768;2023-02-02T05:23:59;99782.78;;;6.30;46.48
71151;BME280;59071;42.138;24.768;2023-02-02T05:26:25;99786.06;;;6.32;46.09
71151;BME280;59071;42.138;24.768;2023-02-02T05:28:51;99794.63;;;6.34;45.89
71151;BME280;59071;42.138;24.768;2023-02-02T05:31:17;99793.19;;;5.92;46.46
71151;BME280;59071;42.138;24.768;2023-02-02T05:33:42;99795.34;;;6.74;56.13
71151;BME280;59071;42.138;24.768;2023-02-02T05:36:08;99807.91;;;7.33;48.99
71151;BME280;59071;42.138;24.768;2023-02-02T05:38:34;99798.19;;;6.95;45.22
71151;BME280;59071;42.138;24.768;2023-02-02T05:40:59;99802.41;;;6.58;45.96
71151;BME280;59071;42.138;24.768;2023-02-02T05:43:25;99801.66;;;6.26;45.91
71151;BME280;59071;42.138;24.768;2023-02-02T05:45:51;99806.72;;;6.59;45.43
71151;BME280;59071;42.138;24.768;2023-02-02T05:48:16;99805.03;;;6.35;45.81
71151;BME280;59071;42.138;24.768;2023-02-02T05:50:41;99802.91;;;6.07;46.01
71151;BME280;59071;42.138;24.768;2023-02-02T05:53:07;99807.31;;;6.15;46.00
71151;BME280;59071;42.138;24.768;2023-02-02T05:55:32;99814.16;;;6.33;51.88
71151;BME280;59071;42.138;24.768;2023-02-02T05:57:58;99811.50;;;6.33;46.17
71151;BME280;59071;42.138;24.768;2023-02-02T06:00:23;99807.19;;;6.40;47.52
71151;BME280;59071;42.138;24.768;2023-02-02T06:02:48;99811.88;;;6.53;45.76
71151;BME280;59071;42.138;24.768;2023-02-02T06:05:14;99817.53;;;6.73;54.59
71151;BME280;59071;42.138;24.768;2023-02-02T06:07:39;99804.03;;;7.05;44.53
71151;BME280;59071;42.138;24.768;2023-02-02T06:10:04;99816.06;;;7.08;44.59
71151;BME280;59071;42.138;24.768;2023-02-02T06:12:30;99811.59;;;7.76;43.23
71151;BME280;59071;42.138;24.768;2023-02-02T06:14:55;99822.66;;;7.80;42.65
71151;BME280;59071;42.138;24.768;2023-02-02T06:17:21;99819.06;;;8.02;42.13
71151;BME280;59071;42.138;24.768;2023-02-02T06:19:46;99825.47;;;8.08;42.30
71151;BME280;59071;42.138;24.768;2023-02-02T06:22:11;99828.16;;;8.30;42.19
71151;BME280;59071;42.138;24.768;2023-02-02T06:24:36;99823.81;;;9.02;40.64
71151;BME280;59071;42.138;24.768;2023-02-02T06:27:02;99840.09;;;9.20;40.97
71151;BME280;59071;42.138;24.768;2023-02-02T06:29:27;99831.72;;;9.23;39.68
71151;BME280;59071;42.138;24.768;2023-02-02T06:31:52;99831.31;;;9.19;39.19
71151;BME280;59071;42.138;24.768;2023-02-02T06:34:17;99837.38;;;9.35;39.43
71151;BME280;59071;42.138;24.768;2023-02-02T06:36:43;99830.19;;;9.64;38.07
71151;BME280;59071;42.138;24.768;2023-02-02T06:39:08;99837.31;;;8.85;39.11
71151;BME280;59071;42.138;24.768;2023-02-02T06:41:34;99842.59;;;8.78;39.39
71151;BME280;59071;42.138;24.768;2023-02-02T06:43:59;99827.97;;;8.68;39.62
71151;BME280;59071;42.138;24.768;2023-02-02T06:46:25;99836.81;;;8.96;39.30
71151;BME280;59071;42.138;24.768;2023-02-02T06:48:50;99828.50;;;9.56;38.09
71151;BME280;59071;42.138;24.768;2023-02-02T06:51:15;99830.84;;;10.69;36.33
71151;BME280;59071;42.138;24.768;2023-02-02T06:53:41;99832.09;;;10.66;35.61
71151;BME280;59071;42.138;24.768;2023-02-02T06:56:06;99829.03;;;10.76;36.00
71151;BME280;59071;42.138;24.768;2023-02-02T06:58:33;99828.41;;;10.94;35.13
71151;BME280;59071;42.138;24.768;2023-02-02T07:01:05;99822.88;;;11.02;35.07
71151;BME280;59071;42.138;24.768;2023-02-02T07:03:31;99828.22;;;11.29;34.47
71151;BME280;59071;42.138;24.768;2023-02-02T07:05:56;99830.47;;;10.99;35.44
71151;BME280;59071;42.138;24.768;2023-02-02T07:08:21;99843.84;;;10.37;35.62
71151;BME280;59071;42.138;24.768;2023-02-02T07:10:47;99848.47;;;10.22;36.68
71151;BME280;59071;42.138;24.768;2023-02-02T07:13:12;99840.31;;;11.11;35.78
71151;BME280;59071;42.138;24.768;2023-02-02T07:15:38;99855.47;;;11.38;34.69
71151;BME280;59071;42.138;24.768;2023-02-02T07:18:03;99855.22;;;10.79;36.09
71151;BME280;59071;42.138;24.768;2023-02-02T07:20:29;99857.84;;;10.59;36.60
71151;BME280;59071;42.138;24.768;2023-02-02T07:22:54;99847.28;;;11.32;35.42
71151;BME280;59071;42.138;24.768;2023-02-02T07:25:19;99851.19;;;11.37;35.25
71151;BME280;59071;42.138;24.768;2023-02-02T07:27:45;99850.13;;;11.38;35.42
71151;BME280;59071;42.138;24.768;2023-02-02T07:30:11;99852.13;;;11.96;34.44
71151;BME280;59071;42.138;24.768;2023-02-02T07:32:37;99846.16;;;11.80;34.94
71151;BME280;59071;42.138;24.768;2023-02-02T07:35:02;99844.56;;;11.72;34.64
71151;BME280;59071;42.138;24.768;2023-02-02T07:37:28;99850.69;;;11.80;34.36
71151;BME280;59071;42.138;24.768;2023-02-02T07:39:53;99846.34;;;12.50;33.96
71151;BME280;59071;42.138;24.768;2023-02-02T07:42:18;99851.16;;;12.35;33.70
71151;BME280;59071;42.138;24.768;2023-02-02T07:44:44;99855.41;;;11.98;34.21
71151;BME280;59071;42.138;24.768;2023-02-02T07:47:09;99858.03;;;12.04;33.93
71151;BME280;59071;42.138;24.768;2023-02-02T07:49:34;99854.38;;;12.89;33.19
71151;BME280;59071;42.138;24.768;2023-02-02T07:51:59;99854.44;;;12.76;33.39
71151;BME280;59071;42.138;24.768;2023-02-02T07:54:25;99857.63;;;12.91;33.18
71151;BME280;59071;42.138;24.768;2023-02-02T07:56:50;99849.03;;;12.89;32.70
71151;BME280;59071;42.138;24.768;2023-02-02T07:59:15;99858.00;;;12.63;33.12
71151;BME280;59071;42.138;24.768;2023-02-02T08:01:41;99859.91;;;12.04;34.29
71151;BME280;59071;42.138;24.768;2023-02-02T08:04:06;99857.00;;;12.12;34.17
71151;BME280;59071;42.138;24.768;2023-02-02T08:06:33;99858.63;;;12.58;33.50
71151;BME280;59071;42.138;24.768;2023-02-02T08:08:59;99858.28;;;11.76;33.96
71151;BME280;59071;42.138;24.768;2023-02-02T08:11:25;99857.50;;;10.95;35.48
71151;BME280;59071;42.138;24.768;2023-02-02T08:13:51;99852.41;;;11.54;34.93
71151;BME280;59071;42.138;24.768;2023-02-02T08:16:17;99855.13;;;12.19;34.39
71151;BME280;59071;42.138;24.768;2023-02-02T08:18:43;99857.63;;;12.01;35.08
71151;BME280;59071;42.138;24.768;2023-02-02T08:21:08;99853.88;;;12.28;34.73
71151;BME280;59071;42.138;24.768;2023-02-02T08:23:34;99859.34;;;13.10;33.18
71151;BME280;59071;42.138;24.768;2023-02-02T08:26:11;99851.16;;;12.35;33.74
71151;BME280;59071;42.138;24.768;2023-02-02T08:28:36;99845.03;;;11.43;35.41
71151;BME280;59071;42.138;24.768;2023-02-02T08:31:03;99847.28;;;11.12;35.51
71151;BME280;59071;42.138;24.768;2023-02-02T08:33:28;99842.72;;;11.73;34.38
71151;BME280;59071;42.138;24.768;2023-02-02T08:35:53;99843.56;;;11.47;34.89
71151;BME280;59071;42.138;24.768;2023-02-02T08:38:19;99842.34;;;11.43;35.42
71151;BME280;59071;42.138;24.768;2023-02-02T08:40:44;99847.97;;;12.06;34.97
71151;BME280;59071;42.138;24.768;2023-02-02T08:43:09;99851.59;;;13.27;33.23
71151;BME280;59071;42.138;24.768;2023-02-02T08:45:34;99840.72;;;12.97;33.23
71151;BME280;59071;42.138;24.768;2023-02-02T08:48:00;99842.81;;;12.95;33.28
71151;BME280;59071;42.138;24.768;2023-02-02T08:50:25;99843.63;;;13.21;32.70
71151;BME280;59071;42.138;24.768;2023-02-02T08:52:50;99846.97;;;14.03;30.89
71151;BME280;59071;42.138;24.768;2023-02-02T08:55:16;99839.47;;;13.25;32.25
71151;BME280;59071;42.138;24.768;2023-02-02T08:57:41;99842.97;;;12.68;32.80
71151;BME280;59071;42.138;24.768;2023-02-02T09:00:06;99835.44;;;14.03;32.14
71151;BME280;59071;42.138;24.768;2023-02-02T09:02:32;99831.72;;;14.22;30.96
71151;BME280;59071;42.138;24.768;2023-02-02T09:04:57;99826.75;;;14.07;30.88
71151;BME280;59071;42.138;24.768;2023-02-02T09:07:22;99830.63;;;14.12;30.93
71151;BME280;59071;42.138;24.768;2023-02-02T09:09:48;99819.06;;;14.30;30.15
71151;BME280;59071;42.138;24.768;2023-02-02T09:12:14;99820.34;;;14.08;30.58
71151;BME280;59071;42.138;24.768;2023-02-02T09:14:40;99803.88;;;13.93;31.04
71151;BME280;59071;42.138;24.768;2023-02-02T09:17:05;99797.94;;;14.70;30.42
71151;BME280;59071;42.138;24.768;2023-02-02T09:19:30;99798.75;;;14.40;30.43
71151;BME280;59071;42.138;24.768;2023-02-02T09:21:56;99797.38;;;14.50;30.24
71151;BME280;59071;42.138;24.768;2023-02-02T09:24:21;99790.00;;;14.63;29.92
71151;BME280;59071;42.138;24.768;2023-02-02T09:26:46;99782.25;;;15.09;29.58
71151;BME280;59071;42.138;24.768;2023-02-02T09:29:13;99784.19;;;14.66;30.29
71151;BME280;59071;42.138;24.768;2023-02-02T09:31:39;99774.78;;;14.15;30.63
71151;BME280;59071;42.138;24.768;2023-02-02T09:34:05;99770.53;;;14.26;31.59
71151;BME280;59071;42.138;24.768;2023-02-02T09:36:31;99761.59;;;14.32;29.71
71151;BME280;59071;42.138;24.768;2023-02-02T09:38:56;99755.34;;;13.89;31.35
71151;BME280;59071;42.138;24.768;2023-02-02T09:41:40;99758.28;;;13.26;31.90
71151;BME280;59071;42.138;24.768;2023-02-02T09:49:06;99747.03;;;13.61;31.14
71151;BME280;59071;42.138;24.768;2023-02-02T09:51:35;99754.47;;;13.59;31.34
71151;BME280;59071;42.138;24.768;2023-02-02T09:54:50;99755.00;;;13.49;31.66
71151;BME280;59071;42.138;24.768;2023-02-02T09:56:51;99750.72;;;13.97;31.32
71151;BME280;59071;42.138;24.768;2023-02-02T09:59:21;99747.72;;;13.56;31.95
71151;BME280;59071;42.138;24.768;2023-02-02T10:01:57;99746.44;;;13.59;31.93
71151;BME280;59071;42.138;24.768;2023-02-02T10:04:26;99727.91;;;13.20;32.15
71151;BME280;59071;42.138;24.768;2023-02-02T10:06:55;99725.56;;;13.30;32.18
71151;BME280;59071;42.138;24.768;2023-02-02T10:14:43;99704.41;;;13.66;31.88
71151;BME280;59071;42.138;24.768;2023-02-02T10:19:56;99692.47;;;14.41;30.57
71151;BME280;59071;42.138;24.768;2023-02-02T10:22:26;99693.44;;;13.56;32.05
71151;BME280;59071;42.138;24.768;2023-02-02T10:24:53;99681.78;;;13.32;32.27
71151;BME280;59071;42.138;24.768;2023-02-02T10:27:25;99684.06;;;14.25;31.69
71151;BME280;59071;42.138;24.768;2023-02-02T10:30:00;99674.66;;;14.46;31.10
71151;BME280;59071;42.138;24.768;2023-02-02T10:32:26;99673.97;;;13.67;32.07
71151;BME280;59071;42.138;24.768;2023-02-02T10:42:41;99669.53;;;13.91;30.81
71151;BME280;59071;42.138;24.768;2023-02-02T10:45:09;99660.88;;;14.61;29.96
71151;BME280;59071;42.138;24.768;2023-02-02T10:47:37;99653.00;;;14.36;30.33
71151;BME280;59071;42.138;24.768;2023-02-02T10:52:37;99653.25;;;14.46;29.85
71151;BME280;59071;42.138;24.768;2023-02-02T10:57:31;99637.03;;;14.18;30.41
71151;BME280;59071;42.138;24.768;2023-02-02T11:02:26;99628.81;;;15.14;29.39
71151;BME280;59071;42.138;24.768;2023-02-02T11:04:52;99630.31;;;14.51;30.38
71151;BME280;59071;42.138;24.768;2023-02-02T11:07:36;99621.75;;;14.06;30.31
71151;BME280;59071;42.138;24.768;2023-02-02T11:10:01;99619.00;;;14.25;30.32
71151;BME280;59071;42.138;24.768;2023-02-02T11:12:30;99618.19;;;14.24;30.23
71151;BME280;59071;42.138;24.768;2023-02-02T11:17:22;99610.84;;;14.20;30.60
71151;BME280;59071;42.138;24.768;2023-02-02T11:19:48;99604.97;;;15.00;29.23
71151;BME280;59071;42.138;24.768;2023-02-02T11:24:54;99574.88;;;14.04;30.64
71151;BME280;59071;42.138;24.768;2023-02-02T11:29:47;99560.00;;;14.20;30.20
71151;BME280;59071;42.138;24.768;2023-02-02T11:32:23;99563.16;;;14.28;30.60
71151;BME280;59071;42.138;24.768;2023-02-02T11:35:03;99543.38;;;14.41;30.73
71151;BME280;59071;42.138;24.768;2023-02-02T11:37:37;99538.78;;;15.01;29.05
71151;BME280;59071;42.138;24.768;2023-02-02T11:40:17;99540.84;;;15.39;29.80
71151;BME280;59071;42.138;24.768;2023-02-02T11:42:45;99535.72;;;15.09;29.33
71151;BME280;59071;42.138;24.768;2023-02-02T11:45:15;99530.63;;;15.82;28.39
71151;BME280;59071;42.138;24.768;2023-02-02T11:47:42;99516.09;;;15.20;28.33
71151;BME280;59071;42.138;24.768;2023-02-02T11:50:15;99518.66;;;15.15;28.73
71151;BME280;59071;42.138;24.768;2023-02-02T11:52:44;99507.06;;;15.84;26.79
71151;BME280;59071;42.138;24.768;2023-02-02T11:55:13;99509.47;;;15.40;26.70
71151;BME280;59071;42.138;24.768;2023-02-02T11:57:39;99503.38;;;15.28;27.42
71151;BME280;59071;42.138;24.768;2023-02-02T12:02:30;99493.78;;;15.77;26.48
71151;BME280;59071;42.138;24.768;2023-02-02T12:05:11;99505.94;;;15.22;27.29
71151;BME280;59071;42.138;24.768;2023-02-02T12:07:38;99507.91;;;15.73;27.60
71151;BME280;59071;42.138;24.768;2023-02-02T12:10:15;99505.13;;;15.68;26.03
71151;BME280;59071;42.138;24.768;2023-02-02T12:12:56;99508.38;;;15.70;26.51
71151;BME280;59071;42.138;24.768;2023-02-02T12:15:26;99508.34;;;15.36;26.64
71151;BME280;59071;42.138;24.768;2023-02-02T12:20:53;99497.56;;;15.19;26.79
71151;BME280;59071;42.138;24.768;2023-02-02T12:26:16;99492.19;;;15.48;26.72
71151;BME280;59071;42.138;24.768;2023-02-02T12:31:18;99496.13;;;14.59;26.71
71151;BME280;59071;42.138;24.768;2023-02-02T12:46:36;99476.94;;;13.91;27.72
71151;BME280;59071;42.138;24.768;2023-02-02T12:49:21;99488.06;;;13.64;28.24
71151;BME280;59071;42.138;24.768;2023-02-02T12:51:57;99487.25;;;13.64;27.91
71151;BME280;59071;42.138;24.768;2023-02-02T12:54:40;99480.44;;;13.19;28.74
71151;BME280;59071;42.138;24.768;2023-02-02T13:04:52;99475.34;;;13.18;28.32
71151;BME280;59071;42.138;24.768;2023-02-02T13:10:11;99472.03;;;13.04;28.67
71151;BME280;59071;42.138;24.768;2023-02-02T13:12:40;99475.44;;;13.11;28.52
71151;BME280;59071;42.138;24.768;2023-02-02T13:15:08;99459.56;;;13.46;28.52
71151;BME280;59071;42.138;24.768;2023-02-02T13:17:40;99459.59;;;13.28;28.58
71151;BME280;59071;42.138;24.768;2023-02-02T13:20:15;99453.44;;;13.27;28.39
71151;BME280;59071;42.138;24.768;2023-02-02T13:22:43;99453.56;;;13.33;28.39
71151;BME280;59071;42.138;24.768;2023-02-02T13:25:21;99458.44;;;14.01;27.98
71151;BME280;59071;42.138;24.768;2023-02-02T13:27:48;99453.69;;;13.07;28.83
71151;BME280;59071;42.138;24.768;2023-02-02T13:30:36;99452.19;;;13.30;28.52
71151;BME280;59071;42.138;24.768;2023-02-02T13:33:01;99447.38;;;13.62;28.20
71151;BME280;59071;42.138;24.768;2023-02-02T13:35:33;99450.38;;;13.54;28.78
71151;BME280;59071;42.138;24.768;2023-02-02T13:38:03;99436.78;;;13.14;29.12
71151;BME280;59071;42.138;24.768;2023-02-02T13:40:33;99452.97;;;13.96;28.17
71151;BME280;59071;42.138;24.768;2023-02-02T13:45:42;99455.84;;;13.59;28.75
71151;BME280;59071;42.138;24.768;2023-02-02T13:50:46;99437.97;;;13.72;28.42
71151;BME280;59071;42.138;24.768;2023-02-02T13:53:24;99427.72;;;13.15;28.39
71151;BME280;59071;42.138;24.768;2023-02-02T13:56:23;99429.22;;;12.80;28.63
71151;BME280;59071;42.138;24.768;2023-02-02T14:01:39;99437.59;;;13.14;28.11
71151;BME280;59071;42.138;24.768;2023-02-02T14:04:15;99419.03;;;12.59;28.52
71151;BME280;59071;42.138;24.768;2023-02-02T14:06:53;99433.38;;;13.06;29.88
71151;BME280;59071;42.138;24.768;2023-02-02T14:09:20;99461.88;;;12.27;34.19
71151;BME280;59071;42.138;24.768;2023-02-02T14:11:55;99462.94;;;11.44;37.69
71151;BME280;59071;42.138;24.768;2023-02-02T14:14:22;99479.81;;;11.38;39.42
71151;BME280;59071;42.138;24.768;2023-02-02T14:17:01;99479.31;;;11.47;40.16
71151;BME280;59071;42.138;24.768;2023-02-02T14:24:49;99466.47;;;11.38;41.69
71151;BME280;59071;42.138;24.768;2023-02-02T14:34:52;99477.72;;;11.71;41.19
71151;BME280;59071;42.138;24.768;2023-02-02T14:45:19;99490.53;;;11.24;39.88
71151;BME280;59071;42.138;24.768;2023-02-02T14:47:47;99485.72;;;11.40;38.90
71151;BME280;59071;42.138;24.768;2023-02-02T14:50:14;99492.44;;;11.49;38.83
71151;BME280;59071;42.138;24.768;2023-02-02T14:52:41;99505.88;;;11.86;38.85
71151;BME280;59071;42.138;24.768;2023-02-02T14:55:17;99508.03;;;11.07;40.35
71151;BME280;59071;42.138;24.768;2023-02-02T14:57:42;99506.25;;;11.01;41.88
71151;BME280;59071;42.138;24.768;2023-02-02T15:00:19;99505.16;;;11.47;40.64
71151;BME280;59071;42.138;24.768;2023-02-02T15:02:45;99498.63;;;11.43;40.69
71151;BME280;59071;42.138;24.768;2023-02-02T15:07:54;99484.53;;;11.35;41.60